createdAt,value
2022-09-04T00:01:45.059Z,16.80
2022-09-04T00:04:22.406Z,16.80
2022-09-04T00:07:01.308Z,16.70
2022-09-04T00:09:40.643Z,16.70
2022-09-04T00:12:10.318Z,16.70
2022-09-04T00:14:43.988Z,16.70
2022-09-04T00:17:21.004Z,16.70
2022-09-04T00:19:56.239Z,16.70
2022-09-04T00:22:31.813Z,16.60
2022-09-04T00:25:08.053Z,16.60
2022-09-04T00:27:44.703Z,16.60
2022-09-04T00:30:17.244Z,16.60
2022-09-04T00:32:53.014Z,16.60
2022-09-04T00:35:24.269Z,16.60
2022-09-04T00:37:59.036Z,16.50
2022-09-04T00:40:31.391Z,16.50
2022-09-04T00:43:20.069Z,16.40
2022-09-04T00:46:05.083Z,16.50
2022-09-04T00:49:04.183Z,16.40
2022-09-04T00:51:40.442Z,16.40
2022-09-04T00:54:38.718Z,16.40
2022-09-04T00:57:44.530Z,16.40
2022-09-04T01:00:16.343Z,16.40
2022-09-04T01:03:03.416Z,16.40
2022-09-04T01:05:45.490Z,16.40
2022-09-04T01:08:24.569Z,16.40
2022-09-04T01:11:06.367Z,16.40
2022-09-04T01:13:41.451Z,16.30
2022-09-04T01:16:14.834Z,16.30
2022-09-04T01:18:50.632Z,16.20
2022-09-04T01:21:56.316Z,16.20
2022-09-04T01:24:39.957Z,16.20
2022-09-04T01:27:17.288Z,16.20
2022-09-04T01:29:54.057Z,16.20
2022-09-04T01:32:32.668Z,16.20
2022-09-04T01:35:09.933Z,16.20
2022-09-04T01:37:49.195Z,16.10
2022-09-04T01:40:35.581Z,16.10
2022-09-04T01:43:11.348Z,16.20
2022-09-04T01:45:55.579Z,16.20
2022-09-04T01:48:33.035Z,16.10
2022-09-04T01:51:08.958Z,16.10
2022-09-04T01:53:41.525Z,16.10
2022-09-04T01:56:15.955Z,16.10
2022-09-04T01:58:54.131Z,16.10
2022-09-04T02:01:31.857Z,16.00
2022-09-04T02:04:12.546Z,16.00
2022-09-04T02:06:54.195Z,16.00
2022-09-04T02:09:33.536Z,15.90
2022-09-04T02:12:11.786Z,16.00
2022-09-04T02:14:54.350Z,16.00
2022-09-04T02:17:33.908Z,15.90
2022-09-04T02:20:16.129Z,15.90
2022-09-04T02:22:51.055Z,15.90
2022-09-04T02:25:27.214Z,15.80
2022-09-04T02:28:03.653Z,15.90
2022-09-04T02:30:40.461Z,15.80
2022-09-04T02:33:15.761Z,15.80
2022-09-04T02:35:48.738Z,15.70
2022-09-04T02:38:30.850Z,15.70
2022-09-04T02:41:06.599Z,15.70
2022-09-04T02:43:52.074Z,15.70
2022-09-04T02:46:30.440Z,15.70
2022-09-04T02:49:13.238Z,15.60
2022-09-04T02:52:01.882Z,15.60
2022-09-04T02:54:48.541Z,15.60
2022-09-04T02:57:30.026Z,15.60
2022-09-04T03:00:07.765Z,15.60
2022-09-04T03:02:42.690Z,15.60
2022-09-04T03:05:20.023Z,15.50
2022-09-04T03:07:55.675Z,15.40
2022-09-04T03:10:30.956Z,15.40
2022-09-04T03:13:07.093Z,15.50
2022-09-04T03:15:42.410Z,15.40
2022-09-04T03:18:21.043Z,15.40
2022-09-04T03:20:55.367Z,15.30
2022-09-04T03:23:33.917Z,15.40
2022-09-04T03:26:19.427Z,15.40
2022-09-04T03:29:02.274Z,15.40
2022-09-04T03:31:38.617Z,15.20
2022-09-04T03:34:26.930Z,15.30
2022-09-04T03:37:10.342Z,15.30
2022-09-04T03:39:48.911Z,15.30
2022-09-04T03:42:28.725Z,15.20
2022-09-04T03:45:08.221Z,15.20
2022-09-04T03:47:48.180Z,15.20
2022-09-04T03:50:29.330Z,15.10
2022-09-04T03:53:05.820Z,15.00
2022-09-04T03:55:56.048Z,15.00
2022-09-04T03:58:29.310Z,15.00
2022-09-04T04:01:09.931Z,15.00
2022-09-04T04:03:52.980Z,15.00
2022-09-04T04:06:35.539Z,14.90
2022-09-04T04:09:23.528Z,14.90
2022-09-04T04:12:16.703Z,14.80
2022-09-04T04:15:17.709Z,14.80
2022-09-04T04:18:00.162Z,14.70
2022-09-04T04:20:42.192Z,14.70
2022-09-04T04:23:36.242Z,14.70
2022-09-04T04:26:16.671Z,14.70
2022-09-04T04:29:08.617Z,14.70
2022-09-04T04:32:10.569Z,14.70
2022-09-04T04:34:51.215Z,14.80
2022-09-04T04:37:31.693Z,14.80
2022-09-04T04:40:08.065Z,14.80
2022-09-04T04:42:46.322Z,14.80
2022-09-04T04:45:43.306Z,14.80
2022-09-04T04:48:48.384Z,14.70
2022-09-04T04:51:40.683Z,14.80
2022-09-04T04:54:32.437Z,14.80
2022-09-04T04:57:14.079Z,14.80
2022-09-04T04:59:49.237Z,14.80
2022-09-04T05:02:25.507Z,14.80
2022-09-04T05:05:02.761Z,14.90
2022-09-04T05:07:37.283Z,14.90
2022-09-04T05:10:17.716Z,15.00
2022-09-04T05:13:00.470Z,15.00
2022-09-04T05:15:48.489Z,14.90
2022-09-04T05:18:33.008Z,15.00
2022-09-04T05:21:09.009Z,15.00
2022-09-04T05:23:42.752Z,15.00
2022-09-04T05:26:18.817Z,15.00
2022-09-04T05:28:56.645Z,15.00
2022-09-04T05:31:37.896Z,15.10
2022-09-04T05:34:10.984Z,15.10
2022-09-04T05:36:50.360Z,15.30
2022-09-04T05:39:27.475Z,15.40
2022-09-04T05:42:11.383Z,15.50
2022-09-04T05:44:59.647Z,15.50
2022-09-04T05:47:44.572Z,15.60
2022-09-04T05:50:35.960Z,15.60
2022-09-04T05:53:29.797Z,15.70
2022-09-04T05:56:38.995Z,15.80
2022-09-04T05:59:27.746Z,15.80
2022-09-04T06:02:30.155Z,15.90
2022-09-04T06:05:19.176Z,16.00
2022-09-04T06:08:01.891Z,16.10
2022-09-04T06:10:40.913Z,16.20
2022-09-04T06:13:41.772Z,16.20
2022-09-04T06:16:28.695Z,16.30
2022-09-04T06:19:20.888Z,16.40
2022-09-04T06:22:16.320Z,16.50
2022-09-04T06:25:06.281Z,16.70
2022-09-04T06:28:18.744Z,16.80
2022-09-04T06:30:53.688Z,16.80
2022-09-04T06:33:50.484Z,17.00
2022-09-04T06:36:42.189Z,17.00
2022-09-04T06:39:31.309Z,17.20
2022-09-04T06:42:17.521Z,17.40
2022-09-04T06:44:59.805Z,17.40
2022-09-04T06:47:42.787Z,17.60
2022-09-04T06:50:21.249Z,17.70
2022-09-04T06:53:04.396Z,17.70
2022-09-04T06:55:42.606Z,17.70
2022-09-04T06:58:25.996Z,17.70
2022-09-04T07:00:59.147Z,17.80
2022-09-04T07:03:39.606Z,17.90
2022-09-04T07:06:13.957Z,18.00
2022-09-04T07:08:57.884Z,18.10
2022-09-04T07:11:40.789Z,18.20
2022-09-04T07:14:21.393Z,18.40
2022-09-04T07:16:58.861Z,18.50
2022-09-04T07:19:51.319Z,18.60
2022-09-04T07:22:43.560Z,18.80
2022-09-04T07:25:19.165Z,18.90
2022-09-04T07:28:09.129Z,19.10
2022-09-04T07:30:43.505Z,19.20
2022-09-04T07:33:20.304Z,19.30
2022-09-04T07:35:56.848Z,19.40
2022-09-04T07:38:36.249Z,19.30
2022-09-04T07:41:11.075Z,19.30
2022-09-04T07:43:54.587Z,19.40
2022-09-04T07:46:33.536Z,19.40
2022-09-04T07:49:10.152Z,19.50
2022-09-04T07:51:45.291Z,19.60
2022-09-04T07:54:26.629Z,19.60
2022-09-04T07:57:13.802Z,19.80
2022-09-04T08:00:00.190Z,19.90
2022-09-04T08:02:38.071Z,19.90
2022-09-04T08:05:21.960Z,19.90
2022-09-04T08:08:15.671Z,20.00
2022-09-04T08:11:00.528Z,20.10
2022-09-04T08:14:00.416Z,20.10
2022-09-04T08:16:37.896Z,20.10
2022-09-04T08:19:23.165Z,20.20
2022-09-04T08:21:54.915Z,20.40
2022-09-04T08:25:06.352Z,20.40
2022-09-04T08:28:08.372Z,20.40
2022-09-04T08:30:44.637Z,20.40
2022-09-04T08:33:36.229Z,20.60
2022-09-04T08:36:11.372Z,20.60
2022-09-04T08:38:57.188Z,20.80
2022-09-04T08:42:05.840Z,20.80
2022-09-04T08:45:20.228Z,20.80
2022-09-04T08:48:42.833Z,21.00
2022-09-04T08:51:57.198Z,21.00
2022-09-04T08:54:59.056Z,21.00
2022-09-04T08:58:05.999Z,21.10
2022-09-04T09:00:57.825Z,21.40
2022-09-04T09:03:58.824Z,21.50
2022-09-04T09:07:05.649Z,21.40
2022-09-04T09:10:15.273Z,21.50
2022-09-04T09:13:22.996Z,21.70
2022-09-04T09:16:16.835Z,21.80
2022-09-04T09:19:11.184Z,21.90
2022-09-04T09:21:47.853Z,21.90
2022-09-04T09:25:07.175Z,22.00
2022-09-04T09:28:05.636Z,22.00
2022-09-04T09:30:51.116Z,22.20
2022-09-04T09:34:00.147Z,22.20
2022-09-04T09:37:02.728Z,22.50
2022-09-04T09:40:17.665Z,22.30
2022-09-04T09:43:14.134Z,22.20
2022-09-04T09:46:19.758Z,22.30
2022-09-04T09:49:21.238Z,22.30
2022-09-04T09:52:18.375Z,22.60
2022-09-04T09:55:17.052Z,22.60
2022-09-04T09:58:10.041Z,22.60
2022-09-04T10:00:48.455Z,22.50
2022-09-04T10:03:44.059Z,22.50
2022-09-04T10:06:49.278Z,22.60
2022-09-04T10:09:52.868Z,22.70
2022-09-04T10:12:56.666Z,22.90
2022-09-04T10:15:52.791Z,23.00
2022-09-04T10:18:59.208Z,23.00
2022-09-04T10:22:07.805Z,23.10
2022-09-04T10:25:06.878Z,23.10
2022-09-04T10:28:17.481Z,23.30
2022-09-04T10:31:25.576Z,23.30
2022-09-04T10:34:10.985Z,23.50
2022-09-04T10:36:47.604Z,23.30
2022-09-04T10:39:42.471Z,23.40
2022-09-04T10:42:27.447Z,23.40
2022-09-04T10:45:15.401Z,23.50
2022-09-04T10:48:08.330Z,23.50
2022-09-04T10:51:05.694Z,23.70
2022-09-04T10:53:57.067Z,23.70
2022-09-04T10:56:28.965Z,23.80
2022-09-04T10:59:21.244Z,23.80
2022-09-04T11:02:24.162Z,23.80
2022-09-04T11:05:20.417Z,23.70
2022-09-04T11:08:35.989Z,23.90
2022-09-04T11:11:19.998Z,24.10
2022-09-04T11:14:33.020Z,24.20
2022-09-04T11:17:42.181Z,24.10
2022-09-04T11:20:46.202Z,24.00
2022-09-04T11:23:49.662Z,24.30
2022-09-04T11:27:12.210Z,24.40
2022-09-04T11:29:56.019Z,24.30
2022-09-04T11:33:23.111Z,24.30
2022-09-04T11:36:19.539Z,24.80
2022-09-04T11:39:19.274Z,24.80
2022-09-04T11:42:20.536Z,24.70
2022-09-04T11:45:29.104Z,24.60
2022-09-04T11:48:18.032Z,24.50
2022-09-04T11:51:10.520Z,24.50
2022-09-04T11:54:10.350Z,24.50
2022-09-04T11:57:02.973Z,24.80
2022-09-04T12:00:02.431Z,24.60
2022-09-04T12:03:00.643Z,24.70
2022-09-04T12:05:45.599Z,24.50
2022-09-04T12:08:28.988Z,24.50
2022-09-04T12:11:22.220Z,24.50
2022-09-04T12:14:15.186Z,24.30
2022-09-04T12:17:30.905Z,24.30
2022-09-04T12:20:24.030Z,24.10
2022-09-04T12:23:18.420Z,24.00
2022-09-04T12:26:12.525Z,24.20
2022-09-04T12:29:10.208Z,24.50
2022-09-04T12:32:09.140Z,24.70
2022-09-04T12:35:26.539Z,24.80
2022-09-04T12:38:33.591Z,25.00
2022-09-04T12:41:10.095Z,25.20
2022-09-04T12:43:52.031Z,25.20
2022-09-04T12:46:36.381Z,25.40
2022-09-04T12:49:27.325Z,25.50
2022-09-04T12:52:05.505Z,25.50
2022-09-04T12:54:38.589Z,25.30
2022-09-04T12:57:25.837Z,25.20
2022-09-04T13:00:07.281Z,25.40
2022-09-04T13:02:51.969Z,25.60
2022-09-04T13:05:36.809Z,25.70
2022-09-04T13:08:18.873Z,25.70
2022-09-04T13:11:00.350Z,25.90
2022-09-04T13:13:45.947Z,26.00
2022-09-04T13:16:22.495Z,25.90
2022-09-04T13:19:03.693Z,26.00
2022-09-04T13:22:01.356Z,26.00
2022-09-04T13:24:44.455Z,26.30
2022-09-04T13:27:34.197Z,26.30
2022-09-04T13:30:08.464Z,26.30
2022-09-04T13:32:57.532Z,26.30
2022-09-04T13:35:45.261Z,26.30
2022-09-04T13:38:44.589Z,26.50
2022-09-04T13:41:37.353Z,26.50
2022-09-04T13:44:22.853Z,26.50
2022-09-04T13:47:03.125Z,26.60
2022-09-04T13:49:37.776Z,26.50
2022-09-04T13:52:15.371Z,26.60
2022-09-04T13:54:47.706Z,26.60
2022-09-04T13:57:21.087Z,26.70
2022-09-04T13:59:50.481Z,26.70
2022-09-04T14:02:25.315Z,26.70
2022-09-04T14:04:56.904Z,26.70
2022-09-04T14:07:29.332Z,26.50
2022-09-04T14:10:04.160Z,26.70
2022-09-04T14:12:44.575Z,26.40
2022-09-04T14:15:46.856Z,26.00
2022-09-04T14:18:31.653Z,26.00
2022-09-04T14:21:05.519Z,26.10
2022-09-04T14:23:43.126Z,26.00
2022-09-04T14:26:20.245Z,25.90
2022-09-04T14:28:55.697Z,25.90
2022-09-04T14:31:32.669Z,26.00
2022-09-04T14:34:13.876Z,25.90
2022-09-04T14:36:56.383Z,25.90
2022-09-04T14:39:33.643Z,26.00
2022-09-04T14:42:23.602Z,26.10
2022-09-04T14:45:13.223Z,25.90
2022-09-04T14:47:47.382Z,25.80
2022-09-04T14:50:19.246Z,25.60
2022-09-04T14:52:50.118Z,25.50
2022-09-04T14:55:25.821Z,25.50
2022-09-04T14:58:04.311Z,25.50
2022-09-04T15:00:34.777Z,25.50
2022-09-04T15:03:10.504Z,25.50
2022-09-04T15:05:48.222Z,25.40
2022-09-04T15:08:29.337Z,25.40
2022-09-04T15:11:00.732Z,25.30
2022-09-04T15:13:50.512Z,25.30
2022-09-04T15:16:25.189Z,25.30
2022-09-04T15:18:59.482Z,25.30
2022-09-04T15:21:39.842Z,25.30
2022-09-04T15:24:25.756Z,25.30
2022-09-04T15:27:01.457Z,25.20
2022-09-04T15:29:36.898Z,25.20
2022-09-04T15:32:13.654Z,25.20
2022-09-04T15:34:42.921Z,25.20
2022-09-04T15:37:19.950Z,25.30
2022-09-04T15:39:56.900Z,25.20
2022-09-04T15:42:40.353Z,25.30
2022-09-04T15:45:17.384Z,25.30
2022-09-04T15:48:11.285Z,25.30
2022-09-04T15:50:57.680Z,25.20
2022-09-04T15:53:31.177Z,25.30
2022-09-04T15:56:09.500Z,25.20
2022-09-04T15:58:53.299Z,25.20
2022-09-04T16:01:25.946Z,25.20
2022-09-04T16:04:04.503Z,25.10
2022-09-04T16:06:39.604Z,25.10
2022-09-04T16:09:18.519Z,25.10
2022-09-04T16:11:55.838Z,25.20
2022-09-04T16:14:28.057Z,25.20
2022-09-04T16:17:02.146Z,25.00
2022-09-04T16:19:34.689Z,25.10
2022-09-04T16:22:11.556Z,25.10
2022-09-04T16:24:46.875Z,25.10
2022-09-04T16:27:20.291Z,25.10
2022-09-04T16:29:54.200Z,25.00
2022-09-04T16:32:24.392Z,24.90
2022-09-04T16:34:57.026Z,24.90
2022-09-04T16:37:31.266Z,24.80
2022-09-04T16:40:24.335Z,24.80
2022-09-04T16:42:57.054Z,24.80
2022-09-04T16:45:28.047Z,24.90
2022-09-04T16:48:21.881Z,24.80
2022-09-04T16:50:55.278Z,24.80
2022-09-04T16:53:35.064Z,24.70
2022-09-04T16:56:07.325Z,24.60
2022-09-04T16:58:46.122Z,24.60
2022-09-04T17:01:20.974Z,24.50
2022-09-04T17:04:13.355Z,24.50
2022-09-04T17:06:54.476Z,24.50
2022-09-04T17:09:29.428Z,24.50
2022-09-04T17:12:07.324Z,24.40
2022-09-04T17:14:41.484Z,24.30
2022-09-04T17:17:30.880Z,24.30
2022-09-04T17:20:06.776Z,24.20
2022-09-04T17:28:56.902Z,24.20
2022-09-04T17:29:15.039Z,24.10
2022-09-04T17:29:18.571Z,24.10
2022-09-04T17:31:51.221Z,24.00
2022-09-04T17:40:38.300Z,23.90
2022-09-04T17:40:41.510Z,24.00
2022-09-04T17:43:36.318Z,24.00
2022-09-04T17:46:27.564Z,24.00
2022-09-04T17:48:57.571Z,23.80
2022-09-04T17:51:28.282Z,23.60
2022-09-04T17:54:01.107Z,23.50
2022-09-04T17:56:36.911Z,23.50
2022-09-04T17:59:13.938Z,23.40
2022-09-04T18:01:46.308Z,23.30
2022-09-04T18:04:32.601Z,23.20
2022-09-04T18:07:29.930Z,23.10
2022-09-04T18:10:10.180Z,23.00
2022-09-04T18:12:43.888Z,23.00
2022-09-04T18:15:33.480Z,22.90
2022-09-04T18:18:12.621Z,22.90
2022-09-04T18:20:45.336Z,22.80
2022-09-04T18:23:50.867Z,22.70
2022-09-04T18:26:27.844Z,22.60
2022-09-04T18:30:11.846Z,22.60
2022-09-04T18:37:19.366Z,22.40
2022-09-04T18:37:24.178Z,22.40
2022-09-04T18:37:54.258Z,22.30
2022-09-04T18:40:43.021Z,22.30
2022-09-04T18:50:20.504Z,22.20
2022-09-04T18:50:28.624Z,22.00
2022-09-04T18:50:40.777Z,22.10
2022-09-04T18:51:59.362Z,22.00
2022-09-04T18:54:36.281Z,21.90
2022-09-04T18:57:24.433Z,21.90
2022-09-04T19:00:08.063Z,21.80
2022-09-04T19:02:53.504Z,21.80
2022-09-04T19:05:44.531Z,21.70
2022-09-04T19:08:19.776Z,21.60
2022-09-04T19:10:55.423Z,21.60
2022-09-04T19:13:28.214Z,21.50
2022-09-04T19:16:04.908Z,21.30
2022-09-04T19:18:47.678Z,21.30
2022-09-04T19:21:41.063Z,21.20
2022-09-04T19:24:31.465Z,21.10
2022-09-04T19:27:26.696Z,21.00
2022-09-04T19:30:19.994Z,21.00
2022-09-04T19:33:04.504Z,20.90
2022-09-04T19:35:38.279Z,20.80
2022-09-04T19:44:27.314Z,20.90
2022-09-04T19:46:04.665Z,20.80
2022-09-04T19:46:07.373Z,20.70
2022-09-04T19:47:01.335Z,20.60
2022-09-04T19:52:41.625Z,20.60
2022-09-04T19:53:32.084Z,20.50
2022-09-04T19:55:40.175Z,20.40
2022-09-04T19:58:11.443Z,20.40
2022-09-04T20:00:48.832Z,20.40
2022-09-04T20:03:30.485Z,20.30
2022-09-04T20:06:20.768Z,20.30
2022-09-04T20:08:59.139Z,20.30
2022-09-04T20:11:36.001Z,20.20
2022-09-04T20:14:14.835Z,20.10
2022-09-04T20:17:03.005Z,20.10
2022-09-04T20:19:39.973Z,20.10
2022-09-04T20:22:24.845Z,20.00
2022-09-04T20:25:02.144Z,20.00
2022-09-04T20:27:37.564Z,20.00
2022-09-04T20:30:12.099Z,20.10
2022-09-04T20:32:53.065Z,20.00
2022-09-04T20:35:33.860Z,19.90
2022-09-04T20:38:12.268Z,19.90
2022-09-04T20:40:45.304Z,19.90
2022-09-04T20:43:26.836Z,19.90
2022-09-04T20:52:21.853Z,19.90
2022-09-04T20:52:51.516Z,19.80
2022-09-04T20:52:52.612Z,19.70
2022-09-04T20:55:16.073Z,19.60
2022-09-04T21:03:14.434Z,19.60
2022-09-04T21:03:21.495Z,19.70
2022-09-04T21:04:04.861Z,19.50
2022-09-04T21:06:41.815Z,19.40
2022-09-04T21:09:55.580Z,19.20
2022-09-04T21:12:35.544Z,19.20
2022-09-04T21:15:11.586Z,19.20
2022-09-04T21:18:09.544Z,19.10
2022-09-04T21:21:00.889Z,19.10
2022-09-04T21:24:14.816Z,19.00
2022-09-04T21:27:10.381Z,19.00
2022-09-04T21:30:03.087Z,19.00
2022-09-04T21:32:47.213Z,18.90
2022-09-04T21:35:23.210Z,18.90
2022-09-04T21:37:58.421Z,18.90
2022-09-04T21:40:51.831Z,18.90
2022-09-04T21:43:52.964Z,18.80
2022-09-04T21:46:39.169Z,18.70
2022-09-04T21:49:37.122Z,18.60
2022-09-04T21:52:29.948Z,18.60
2022-09-04T21:58:11.609Z,18.60
2022-09-04T22:02:43.088Z,18.60
2022-09-04T22:02:45.896Z,18.50
2022-09-04T22:04:18.182Z,18.50
2022-09-04T22:07:56.321Z,18.50
2022-09-04T22:13:31.714Z,18.50
2022-09-04T22:13:40.215Z,18.50
2022-09-04T22:15:59.895Z,18.40
2022-09-04T22:18:48.704Z,18.40
2022-09-04T22:21:30.896Z,18.30
2022-09-04T22:24:32.302Z,18.30
2022-09-04T22:27:41.118Z,18.20
2022-09-04T22:30:24.300Z,18.20
2022-09-04T22:33:48.327Z,18.20
2022-09-04T22:37:03.705Z,18.10
2022-09-04T22:40:14.518Z,18.10
2022-09-04T22:42:50.530Z,18.10
2022-09-04T22:45:49.719Z,18.00
2022-09-04T22:48:44.007Z,18.00
2022-09-04T22:51:31.739Z,18.00
2022-09-04T22:54:23.547Z,18.10
2022-09-04T22:56:55.971Z,18.10
2022-09-04T23:00:07.680Z,18.10
2022-09-04T23:03:12.636Z,18.10
2022-09-04T23:09:10.708Z,18.00
2022-09-04T23:13:42.654Z,17.90
2022-09-04T23:13:48.350Z,18.00
2022-09-04T23:16:07.041Z,18.00
2022-09-04T23:20:46.863Z,17.90
2022-09-04T23:26:34.484Z,17.80
2022-09-04T23:26:43.576Z,17.90
2022-09-04T23:28:21.442Z,18.00
2022-09-04T23:31:07.266Z,18.10
2022-09-04T23:34:05.144Z,18.00
2022-09-04T23:37:01.299Z,17.90
2022-09-04T23:39:56.951Z,17.80
2022-09-04T23:43:03.596Z,17.70
2022-09-04T23:46:05.593Z,17.70
2022-09-04T23:48:55.010Z,17.60
2022-09-04T23:51:31.220Z,17.70
2022-09-04T23:54:24.766Z,17.80
2022-09-04T23:57:00.869Z,17.90
2022-09-04T23:59:49.279Z,17.90
